• Join FlightAware (Why Join?)
  • Login
  • US Flag 
09:11PM EDT


 

Airport Tracker/Info


-or-


 

Live Flight TrackerFlight Track Log ✈ N923SA ✈ 03-Aug-2013 ✈ KOMN - KSSI

Flight Track Log - Related Links

Times and Time Zones

All times are in EDT time to prevent confusion due to time zone crossing. See the N923SA flight status page for this flight to view local times or setup timezone preferences in your user account.

Time Position Orientation Groundspeed Altitude Reporting Facility
EDT Latitude Longitude Course Direction KTS MPH feet Rate Location/Type
09:56AM 30.6861 -81.4239 351° North 91 105 4,500  Level Jacksonville Center
09:57AM 30.7111 -81.4283 351° North 86 99 4,500 -60 Level Jacksonville Center
09:58AM 30.7361 -81.4303 356° North 86 99 4,400 -60 Descending Jacksonville Center
09:59AM 30.7614 -81.4300 North 86 99 4,400 -60 Level Jacksonville Center
10:00AM 30.7864 -81.4272 North 86 99 4,300 -180 Descending Jacksonville Center
10:01AM 30.8114 -81.4219 10° North 86 99 4,100 -300 Descending Jacksonville Center
10:02AM 30.8364 -81.4142 15° North 86 99 3,800 -420 Descending Jacksonville Center
10:03AM 30.8614 -81.4092 10° North 86 99 3,300 -480 Descending Jacksonville Center
10:04AM 30.8842 -81.4039 11° North 86 99 2,900 -360 Descending Jacksonville Center
10:05AM 30.9114 -81.3986 North 86 99 2,600 -300 Descending Jacksonville Center
10:06AM 30.9342 -81.4006 356° North 86 99 2,400 -120 Descending Jacksonville Center
10:07AM 30.9572 -81.4003 North 86 99 2,400  Level Jacksonville Center
10:08AM 30.9781 -81.4022 355° North 86 99 2,500  Climbing Jacksonville Center
11:11AM 30.5458 -81.3994 180° South 100 115 5,600  Climbing Jacksonville Center
11:12AM 30.5208 -81.3950 171° South 98 113 5,200 -600 Descending Jacksonville Center
11:13AM 30.4894 -81.3908 173° South 104 120 4,400 -780 Descending Jacksonville Center
11:14AM 30.4581 -81.3864 173° South 109 125 3,700 -540 Descending Jacksonville Center
11:15AM 30.4308 -81.3869 181° South 101 116 3,400 -120 Descending Jacksonville Center
11:16AM 30.4039 -81.3850 176° South 94 108 3,500  Climbing Jacksonville Center
11:17AM 30.3767 -81.3828 176° South 96 110 3,500  Level Jacksonville Center
11:18AM 30.3472 -81.3786 173° South 101 116 3,500 -360 Level Jacksonville Center
11:20AM 30.3181 -81.3789 180° South 105 121 2,800 -420 Descending Jacksonville Center
11:21AM 30.2889 -81.3769 177° South 98 113 2,700 -60 Descending Jacksonville Center
11:22AM 30.2617 -81.3750 176° South 99 114 2,700 -60 Level Jacksonville Center
11:23AM 30.2325 -81.3708 173° South 102 117 2,600 -60 Descending Jacksonville Center
11:24AM 30.2050 -81.3617 164° South 97 112 2,600 60 Level Jacksonville Center
11:24AM 30.1778 -81.3547 168° South 100 115 2,800 180 Climbing Jacksonville Center
11:26AM 30.1547 -81.3481 166° South 90 104 3,000 60 Climbing Jacksonville Center
11:28AM 30.1025 -81.3294 163° South 96 110 3,100 120 Climbing Jacksonville Center
11:29AM 30.0794 -81.3228 166° South 91 105 3,400 240 Climbing Jacksonville Center
11:29AM 30.0542 -81.3183 171° South 97 112 3,600 60 Climbing Jacksonville Center
11:30AM 30.0269 -81.3067 160° South 101 116 3,600  Level Jacksonville Center
11:32AM 29.9975 -81.2953 161° South 99 114 3,600  Level Jacksonville Center
11:33AM 29.9725 -81.2908 171° South 99 114 3,600  Level Jacksonville Center
11:33AM 29.9600 -81.2839 154° Southeast 99 114 3,600  Level Jacksonville Center